sensor_id;sensor_type;location;lat;lon;timestamp;P1;durP1;ratioP1;P2;durP2;ratioP2
29236;SDS011;16266;50.866;4.398;2023-07-13T00:00:25;487.05;;;463.30;;
29236;SDS011;16266;50.866;4.398;2023-07-13T00:02:51;458.35;;;435.70;;
29236;SDS011;16266;50.866;4.398;2023-07-13T00:05:20;399.98;;;381.58;;
29236;SDS011;16266;50.866;4.398;2023-07-13T00:07:47;441.50;;;420.35;;
29236;SDS011;16266;50.866;4.398;2023-07-13T00:10:13;522.22;;;494.90;;
29236;SDS011;16266;50.866;4.398;2023-07-13T00:12:39;556.78;;;525.03;;
29236;SDS011;16266;50.866;4.398;2023-07-13T00:15:07;511.58;;;486.90;;
29236;SDS011;16266;50.866;4.398;2023-07-13T00:17:41;473.27;;;448.65;;
29236;SDS011;16266;50.866;4.398;2023-07-13T00:20:11;845.95;;;790.08;;
29236;SDS011;16266;50.866;4.398;2023-07-13T00:22:37;870.97;;;810.33;;
29236;SDS011;16266;50.866;4.398;2023-07-13T00:25:03;624.17;;;586.30;;
29236;SDS011;16266;50.866;4.398;2023-07-13T00:27:29;447.23;;;423.85;;
29236;SDS011;16266;50.866;4.398;2023-07-13T00:29:56;561.58;;;533.78;;
29236;SDS011;16266;50.866;4.398;2023-07-13T00:32:24;684.45;;;647.72;;
29236;SDS011;16266;50.866;4.398;2023-07-13T00:34:50;834.75;;;776.53;;
29236;SDS011;16266;50.866;4.398;2023-07-13T00:37:16;818.42;;;763.83;;
29236;SDS011;16266;50.866;4.398;2023-07-13T00:39:42;785.85;;;735.10;;
29236;SDS011;16266;50.866;4.398;2023-07-13T00:42:08;656.15;;;617.75;;
29236;SDS011;16266;50.866;4.398;2023-07-13T00:44:33;726.50;;;677.63;;
29236;SDS011;16266;50.866;4.398;2023-07-13T00:46:59;754.85;;;705.00;;
29236;SDS011;16266;50.866;4.398;2023-07-13T00:49:26;605.90;;;572.17;;
29236;SDS011;16266;50.866;4.398;2023-07-13T00:54:27;782.95;;;731.83;;
29236;SDS011;16266;50.866;4.398;2023-07-13T00:57:00;528.40;;;499.40;;
29236;SDS011;16266;50.866;4.398;2023-07-13T00:59:28;513.28;;;488.00;;
29236;SDS011;16266;50.866;4.398;2023-07-13T01:01:54;493.90;;;471.25;;
29236;SDS011;16266;50.866;4.398;2023-07-13T01:04:22;530.10;;;503.42;;
29236;SDS011;16266;50.866;4.398;2023-07-13T01:06:49;517.47;;;492.02;;
29236;SDS011;16266;50.866;4.398;2023-07-13T01:09:15;482.83;;;459.92;;
29236;SDS011;16266;50.866;4.398;2023-07-13T01:11:41;430.10;;;410.27;;
29236;SDS011;16266;50.866;4.398;2023-07-13T01:14:07;604.95;;;574.50;;
29236;SDS011;16266;50.866;4.398;2023-07-13T01:16:34;627.00;;;595.33;;
29236;SDS011;16266;50.866;4.398;2023-07-13T01:19:03;718.97;;;679.50;;
29236;SDS011;16266;50.866;4.398;2023-07-13T01:21:51;669.20;;;634.58;;
29236;SDS011;16266;50.866;4.398;2023-07-13T01:24:17;720.60;;;681.72;;
29236;SDS011;16266;50.866;4.398;2023-07-13T01:26:43;714.35;;;675.47;;
29236;SDS011;16266;50.866;4.398;2023-07-13T01:29:08;692.15;;;655.55;;
29236;SDS011;16266;50.866;4.398;2023-07-13T01:31:34;698.08;;;660.85;;
29236;SDS011;16266;50.866;4.398;2023-07-13T01:34:00;703.78;;;665.25;;
29236;SDS011;16266;50.866;4.398;2023-07-13T01:36:25;707.78;;;669.17;;
29236;SDS011;16266;50.866;4.398;2023-07-13T01:38:51;679.80;;;644.40;;
29236;SDS011;16266;50.866;4.398;2023-07-13T01:41:17;600.10;;;570.10;;
29236;SDS011;16266;50.866;4.398;2023-07-13T01:43:42;599.38;;;569.72;;
29236;SDS011;16266;50.866;4.398;2023-07-13T01:46:08;609.45;;;578.88;;
29236;SDS011;16266;50.866;4.398;2023-07-13T01:48:34;642.92;;;610.55;;
29236;SDS011;16266;50.866;4.398;2023-07-13T01:51:00;630.55;;;598.67;;
29236;SDS011;16266;50.866;4.398;2023-07-13T01:53:25;616.95;;;586.42;;
29236;SDS011;16266;50.866;4.398;2023-07-13T01:55:51;612.63;;;582.28;;
29236;SDS011;16266;50.866;4.398;2023-07-13T01:58:17;584.00;;;555.00;;
29236;SDS011;16266;50.866;4.398;2023-07-13T02:00:43;602.60;;;573.05;;
29236;SDS011;16266;50.866;4.398;2023-07-13T02:03:08;582.10;;;553.30;;
29236;SDS011;16266;50.866;4.398;2023-07-13T02:05:34;557.05;;;530.05;;
29236;SDS011;16266;50.866;4.398;2023-07-13T02:08:01;523.47;;;498.95;;
29236;SDS011;16266;50.866;4.398;2023-07-13T02:10:27;482.98;;;460.85;;
29236;SDS011;16266;50.866;4.398;2023-07-13T02:12:53;469.23;;;447.30;;
29236;SDS011;16266;50.866;4.398;2023-07-13T02:15:19;479.83;;;456.95;;
29236;SDS011;16266;50.866;4.398;2023-07-13T02:17:44;490.63;;;467.77;;
29236;SDS011;16266;50.866;4.398;2023-07-13T02:20:10;485.80;;;463.77;;
29236;SDS011;16266;50.866;4.398;2023-07-13T02:22:36;465.02;;;443.98;;
29236;SDS011;16266;50.866;4.398;2023-07-13T02:25:01;499.77;;;476.48;;
29236;SDS011;16266;50.866;4.398;2023-07-13T02:27:27;460.45;;;440.05;;
29236;SDS011;16266;50.866;4.398;2023-07-13T02:29:53;443.90;;;424.15;;
29236;SDS011;16266;50.866;4.398;2023-07-13T02:32:19;439.83;;;419.58;;
29236;SDS011;16266;50.866;4.398;2023-07-13T02:34:44;420.67;;;401.40;;
29236;SDS011;16266;50.866;4.398;2023-07-13T02:37:10;426.35;;;406.50;;
29236;SDS011;16266;50.866;4.398;2023-07-13T02:39:35;410.90;;;391.73;;
29236;SDS011;16266;50.866;4.398;2023-07-13T02:42:01;430.65;;;410.08;;
29236;SDS011;16266;50.866;4.398;2023-07-13T02:44:27;418.77;;;398.48;;
29236;SDS011;16266;50.866;4.398;2023-07-13T02:46:52;421.95;;;401.58;;
29236;SDS011;16266;50.866;4.398;2023-07-13T02:49:18;420.38;;;400.45;;
29236;SDS011;16266;50.866;4.398;2023-07-13T02:51:44;417.42;;;397.88;;
29236;SDS011;16266;50.866;4.398;2023-07-13T02:54:09;410.05;;;391.15;;
29236;SDS011;16266;50.866;4.398;2023-07-13T02:56:36;414.98;;;395.85;;
29236;SDS011;16266;50.866;4.398;2023-07-13T02:59:04;414.13;;;395.05;;
29236;SDS011;16266;50.866;4.398;2023-07-13T03:01:30;428.52;;;408.77;;
29236;SDS011;16266;50.866;4.398;2023-07-13T03:03:59;428.23;;;408.55;;
29236;SDS011;16266;50.866;4.398;2023-07-13T03:06:24;433.42;;;413.52;;
29236;SDS011;16266;50.866;4.398;2023-07-13T03:08:50;435.67;;;415.48;;
29236;SDS011;16266;50.866;4.398;2023-07-13T03:11:17;447.33;;;425.02;;
29236;SDS011;16266;50.866;4.398;2023-07-13T03:13:44;476.15;;;453.10;;
29236;SDS011;16266;50.866;4.398;2023-07-13T03:16:10;473.67;;;450.30;;
29236;SDS011;16266;50.866;4.398;2023-07-13T03:18:36;479.13;;;456.10;;
29236;SDS011;16266;50.866;4.398;2023-07-13T03:21:02;498.40;;;474.10;;
29236;SDS011;16266;50.866;4.398;2023-07-13T03:23:29;492.05;;;467.77;;
29236;SDS011;16266;50.866;4.398;2023-07-13T03:26:05;684.15;;;645.00;;
29236;SDS011;16266;50.866;4.398;2023-07-13T03:28:31;736.97;;;691.80;;
29236;SDS011;16266;50.866;4.398;2023-07-13T03:31:04;755.15;;;709.17;;
29236;SDS011;16266;50.866;4.398;2023-07-13T03:33:32;755.22;;;709.30;;
29236;SDS011;16266;50.866;4.398;2023-07-13T03:35:57;755.60;;;709.03;;
29236;SDS011;16266;50.866;4.398;2023-07-13T03:38:23;742.58;;;696.78;;
29236;SDS011;16266;50.866;4.398;2023-07-13T03:40:49;728.40;;;683.85;;
29236;SDS011;16266;50.866;4.398;2023-07-13T03:43:15;715.10;;;671.70;;
29236;SDS011;16266;50.866;4.398;2023-07-13T03:45:40;701.95;;;658.92;;
29236;SDS011;16266;50.866;4.398;2023-07-13T03:48:06;726.72;;;682.40;;
29236;SDS011;16266;50.866;4.398;2023-07-13T03:50:32;742.13;;;695.78;;
29236;SDS011;16266;50.866;4.398;2023-07-13T03:52:58;770.60;;;722.63;;
29236;SDS011;16266;50.866;4.398;2023-07-13T03:55:24;808.65;;;756.90;;
29236;SDS011;16266;50.866;4.398;2023-07-13T03:57:54;839.47;;;783.88;;
29236;SDS011;16266;50.866;4.398;2023-07-13T04:00:23;861.25;;;803.28;;
29236;SDS011;16266;50.866;4.398;2023-07-13T04:02:49;800.92;;;749.33;;
29236;SDS011;16266;50.866;4.398;2023-07-13T04:05:15;683.33;;;643.17;;
29236;SDS011;16266;50.866;4.398;2023-07-13T04:07:41;556.85;;;527.40;;
29236;SDS011;16266;50.866;4.398;2023-07-13T04:10:07;462.85;;;439.85;;
29236;SDS011;16266;50.866;4.398;2023-07-13T04:12:32;422.85;;;402.60;;
29236;SDS011;16266;50.866;4.398;2023-07-13T04:14:58;432.65;;;412.35;;
29236;SDS011;16266;50.866;4.398;2023-07-13T04:17:24;467.60;;;446.10;;
29236;SDS011;16266;50.866;4.398;2023-07-13T04:19:49;524.33;;;499.90;;
29236;SDS011;16266;50.866;4.398;2023-07-13T04:22:15;523.60;;;499.33;;
29236;SDS011;16266;50.866;4.398;2023-07-13T04:24:41;555.00;;;529.22;;
29236;SDS011;16266;50.866;4.398;2023-07-13T04:27:07;571.03;;;543.95;;
29236;SDS011;16266;50.866;4.398;2023-07-13T04:29:32;577.28;;;550.05;;
29236;SDS011;16266;50.866;4.398;2023-07-13T04:31:58;573.45;;;546.65;;
29236;SDS011;16266;50.866;4.398;2023-07-13T04:34:24;576.80;;;549.67;;
29236;SDS011;16266;50.866;4.398;2023-07-13T04:36:50;559.28;;;532.55;;
29236;SDS011;16266;50.866;4.398;2023-07-13T04:39:16;574.83;;;547.67;;
29236;SDS011;16266;50.866;4.398;2023-07-13T04:41:41;541.00;;;515.40;;
29236;SDS011;16266;50.866;4.398;2023-07-13T04:44:07;535.25;;;509.63;;
29236;SDS011;16266;50.866;4.398;2023-07-13T04:46:33;516.60;;;491.70;;
29236;SDS011;16266;50.866;4.398;2023-07-13T04:48:58;515.13;;;490.27;;
29236;SDS011;16266;50.866;4.398;2023-07-13T04:51:24;503.75;;;479.15;;
29236;SDS011;16266;50.866;4.398;2023-07-13T04:53:51;485.65;;;462.05;;
29236;SDS011;16266;50.866;4.398;2023-07-13T04:56:17;493.42;;;469.48;;
29236;SDS011;16266;50.866;4.398;2023-07-13T04:58:42;501.85;;;477.35;;
29236;SDS011;16266;50.866;4.398;2023-07-13T05:01:09;505.23;;;480.33;;
29236;SDS011;16266;50.866;4.398;2023-07-13T05:03:35;508.13;;;483.55;;
29236;SDS011;16266;50.866;4.398;2023-07-13T05:06:02;484.85;;;461.25;;
29236;SDS011;16266;50.866;4.398;2023-07-13T05:08:30;471.48;;;449.13;;
29236;SDS011;16266;50.866;4.398;2023-07-13T05:10:56;467.85;;;445.30;;
29236;SDS011;16266;50.866;4.398;2023-07-13T05:13:21;536.50;;;509.38;;
29236;SDS011;16266;50.866;4.398;2023-07-13T05:15:58;603.90;;;572.33;;
29236;SDS011;16266;50.866;4.398;2023-07-13T05:18:25;621.63;;;588.58;;
29236;SDS011;16266;50.866;4.398;2023-07-13T05:20:58;621.05;;;588.15;;
29236;SDS011;16266;50.866;4.398;2023-07-13T05:23:29;622.35;;;589.35;;
29236;SDS011;16266;50.866;4.398;2023-07-13T05:25:56;641.38;;;606.60;;
29236;SDS011;16266;50.866;4.398;2023-07-13T05:28:22;711.75;;;670.33;;
29236;SDS011;16266;50.866;4.398;2023-07-13T05:30:48;790.67;;;740.33;;
29236;SDS011;16266;50.866;4.398;2023-07-13T05:33:15;838.75;;;782.30;;
29236;SDS011;16266;50.866;4.398;2023-07-13T05:35:41;821.78;;;767.75;;
29236;SDS011;16266;50.866;4.398;2023-07-13T05:38:06;815.17;;;760.75;;
29236;SDS011;16266;50.866;4.398;2023-07-13T05:40:32;808.50;;;755.50;;
29236;SDS011;16266;50.866;4.398;2023-07-13T05:42:58;790.78;;;739.15;;
29236;SDS011;16266;50.866;4.398;2023-07-13T05:45:24;782.97;;;732.65;;
29236;SDS011;16266;50.866;4.398;2023-07-13T05:47:50;774.03;;;724.70;;
29236;SDS011;16266;50.866;4.398;2023-07-13T05:50:16;770.28;;;721.22;;
29236;SDS011;16266;50.866;4.398;2023-07-13T05:52:42;770.30;;;721.75;;
29236;SDS011;16266;50.866;4.398;2023-07-13T05:55:07;780.97;;;731.92;;
29236;SDS011;16266;50.866;4.398;2023-07-13T05:57:33;760.17;;;714.80;;
29236;SDS011;16266;50.866;4.398;2023-07-13T05:59:59;737.97;;;695.58;;
29236;SDS011;16266;50.866;4.398;2023-07-13T06:02:25;841.97;;;784.75;;
29236;SDS011;16266;50.866;4.398;2023-07-13T06:04:51;754.70;;;709.13;;
29236;SDS011;16266;50.866;4.398;2023-07-13T06:07:17;680.60;;;641.47;;
29236;SDS011;16266;50.866;4.398;2023-07-13T06:09:42;653.75;;;617.95;;
29236;SDS011;16266;50.866;4.398;2023-07-13T06:12:08;586.25;;;556.38;;
29236;SDS011;16266;50.866;4.398;2023-07-13T06:14:34;587.83;;;557.47;;
29236;SDS011;16266;50.866;4.398;2023-07-13T06:17:00;688.67;;;648.28;;
29236;SDS011;16266;50.866;4.398;2023-07-13T06:19:25;642.95;;;606.72;;
29236;SDS011;16266;50.866;4.398;2023-07-13T06:21:51;583.47;;;551.60;;
29236;SDS011;16266;50.866;4.398;2023-07-13T06:24:17;600.15;;;567.17;;
29236;SDS011;16266;50.866;4.398;2023-07-13T06:26:42;613.55;;;579.50;;
29236;SDS011;16266;50.866;4.398;2023-07-13T06:29:08;598.60;;;566.42;;
29236;SDS011;16266;50.866;4.398;2023-07-13T06:31:34;601.03;;;569.88;;
29236;SDS011;16266;50.866;4.398;2023-07-13T06:33:59;496.15;;;472.52;;
29236;SDS011;16266;50.866;4.398;2023-07-13T06:36:25;395.08;;;377.55;;
29236;SDS011;16266;50.866;4.398;2023-07-13T06:38:53;349.92;;;334.67;;
29236;SDS011;16266;50.866;4.398;2023-07-13T06:41:19;403.52;;;385.13;;
29236;SDS011;16266;50.866;4.398;2023-07-13T06:43:45;377.42;;;360.58;;
29236;SDS011;16266;50.866;4.398;2023-07-13T06:46:10;484.77;;;462.05;;
29236;SDS011;16266;50.866;4.398;2023-07-13T06:48:36;633.92;;;600.85;;
29236;SDS011;16266;50.866;4.398;2023-07-13T06:51:02;351.38;;;336.75;;
29236;SDS011;16266;50.866;4.398;2023-07-13T06:53:28;374.05;;;357.45;;
29236;SDS011;16266;50.866;4.398;2023-07-13T06:55:53;299.50;;;287.42;;
29236;SDS011;16266;50.866;4.398;2023-07-13T06:58:19;286.55;;;274.85;;
29236;SDS011;16266;50.866;4.398;2023-07-13T07:00:46;334.75;;;319.25;;
29236;SDS011;16266;50.866;4.398;2023-07-13T07:03:16;717.50;;;676.13;;
29236;SDS011;16266;50.866;4.398;2023-07-13T07:05:41;718.50;;;677.67;;
29236;SDS011;16266;50.866;4.398;2023-07-13T07:08:07;413.23;;;394.00;;
29236;SDS011;16266;50.866;4.398;2023-07-13T07:10:33;361.38;;;345.55;;
29236;SDS011;16266;50.866;4.398;2023-07-13T07:12:59;433.80;;;412.77;;
29236;SDS011;16266;50.866;4.398;2023-07-13T07:15:25;742.03;;;697.47;;
29236;SDS011;16266;50.866;4.398;2023-07-13T07:17:52;718.20;;;673.05;;
29236;SDS011;16266;50.866;4.398;2023-07-13T07:20:17;714.97;;;672.25;;
29236;SDS011;16266;50.866;4.398;2023-07-13T07:22:43;768.08;;;720.80;;
29236;SDS011;16266;50.866;4.398;2023-07-13T07:25:09;417.67;;;400.08;;
29236;SDS011;16266;50.866;4.398;2023-07-13T07:27:34;209.00;;;200.85;;
29236;SDS011;16266;50.866;4.398;2023-07-13T07:30:00;547.28;;;520.60;;
29236;SDS011;16266;50.866;4.398;2023-07-13T07:32:26;462.58;;;438.40;;
29236;SDS011;16266;50.866;4.398;2023-07-13T07:34:53;695.28;;;656.55;;
29236;SDS011;16266;50.866;4.398;2023-07-13T07:37:19;327.70;;;313.77;;
29236;SDS011;16266;50.866;4.398;2023-07-13T07:39:44;153.25;;;147.18;;
29236;SDS011;16266;50.866;4.398;2023-07-13T07:42:10;232.30;;;222.93;;
29236;SDS011;16266;50.866;4.398;2023-07-13T07:44:37;166.02;;;159.57;;
29236;SDS011;16266;50.866;4.398;2023-07-13T07:47:05;117.10;;;112.65;;
29236;SDS011;16266;50.866;4.398;2023-07-13T07:49:31;135.20;;;130.10;;
29236;SDS011;16266;50.866;4.398;2023-07-13T07:51:57;126.57;;;121.68;;
29236;SDS011;16266;50.866;4.398;2023-07-13T07:54:22;224.07;;;215.23;;
29236;SDS011;16266;50.866;4.398;2023-07-13T07:56:48;50.38;;;48.60;;
29236;SDS011;16266;50.866;4.398;2023-07-13T07:59:14;31.73;;;30.65;;
29236;SDS011;16266;50.866;4.398;2023-07-13T08:01:39;32.10;;;30.95;;
29236;SDS011;16266;50.866;4.398;2023-07-13T08:04:05;37.72;;;36.40;;
29236;SDS011;16266;50.866;4.398;2023-07-13T08:06:34;24.35;;;23.45;;
29236;SDS011;16266;50.866;4.398;2023-07-13T08:09:00;20.25;;;19.58;;
29236;SDS011;16266;50.866;4.398;2023-07-13T08:11:27;24.38;;;22.90;;
29236;SDS011;16266;50.866;4.398;2023-07-13T08:13:53;21.98;;;21.23;;
29236;SDS011;16266;50.866;4.398;2023-07-13T08:16:18;28.10;;;27.05;;
29236;SDS011;16266;50.866;4.398;2023-07-13T08:18:44;29.85;;;28.88;;
29236;SDS011;16266;50.866;4.398;2023-07-13T08:21:10;15.40;;;14.90;;
29236;SDS011;16266;50.866;4.398;2023-07-13T08:23:35;17.50;;;16.80;;
29236;SDS011;16266;50.866;4.398;2023-07-13T08:26:01;88.63;;;85.35;;
29236;SDS011;16266;50.866;4.398;2023-07-13T08:28:28;22.38;;;21.58;;
29236;SDS011;16266;50.866;4.398;2023-07-13T08:30:54;88.45;;;85.13;;
29236;SDS011;16266;50.866;4.398;2023-07-13T08:33:20;55.65;;;53.65;;
29236;SDS011;16266;50.866;4.398;2023-07-13T08:35:49;44.85;;;43.05;;
29236;SDS011;16266;50.866;4.398;2023-07-13T08:38:16;47.50;;;45.78;;
29236;SDS011;16266;50.866;4.398;2023-07-13T08:40:42;47.95;;;46.22;;
29236;SDS011;16266;50.866;4.398;2023-07-13T08:43:13;53.22;;;50.28;;
29236;SDS011;16266;50.866;4.398;2023-07-13T08:45:52;64.85;;;61.75;;
29236;SDS011;16266;50.866;4.398;2023-07-13T08:48:26;55.80;;;53.83;;
29236;SDS011;16266;50.866;4.398;2023-07-13T08:51:03;50.45;;;48.55;;
29236;SDS011;16266;50.866;4.398;2023-07-13T08:53:49;19.02;;;18.35;;
29236;SDS011;16266;50.866;4.398;2023-07-13T08:56:23;17.15;;;16.50;;
29236;SDS011;16266;50.866;4.398;2023-07-13T08:58:53;25.25;;;24.42;;
29236;SDS011;16266;50.866;4.398;2023-07-13T09:01:24;24.27;;;23.30;;
29236;SDS011;16266;50.866;4.398;2023-07-13T09:04:03;21.52;;;20.83;;
29236;SDS011;16266;50.866;4.398;2023-07-13T09:06:40;24.55;;;23.60;;
29236;SDS011;16266;50.866;4.398;2023-07-13T09:14:50;22.15;;;21.45;;
29236;SDS011;16266;50.866;4.398;2023-07-13T09:17:30;26.35;;;25.35;;
29236;SDS011;16266;50.866;4.398;2023-07-13T09:20:02;23.50;;;22.70;;
29236;SDS011;16266;50.866;4.398;2023-07-13T09:22:38;28.17;;;27.08;;
29236;SDS011;16266;50.866;4.398;2023-07-13T09:25:13;27.30;;;26.40;;
29236;SDS011;16266;50.866;4.398;2023-07-13T09:28:10;25.48;;;24.02;;
29236;SDS011;16266;50.866;4.398;2023-07-13T09:33:38;24.83;;;23.87;;
29236;SDS011;16266;50.866;4.398;2023-07-13T09:44:35;24.70;;;23.90;;
29236;SDS011;16266;50.866;4.398;2023-07-13T09:47:03;29.58;;;28.42;;
29236;SDS011;16266;50.866;4.398;2023-07-13T09:49:41;20.23;;;19.42;;
29236;SDS011;16266;50.866;4.398;2023-07-13T09:52:10;21.23;;;20.38;;
29236;SDS011;16266;50.866;4.398;2023-07-13T09:54:39;19.05;;;18.35;;
29236;SDS011;16266;50.866;4.398;2023-07-13T09:57:12;22.40;;;21.50;;
29236;SDS011;16266;50.866;4.398;2023-07-13T09:59:49;29.20;;;28.20;;
29236;SDS011;16266;50.866;4.398;2023-07-13T10:02:26;21.08;;;20.27;;
29236;SDS011;16266;50.866;4.398;2023-07-13T10:05:11;18.10;;;17.40;;
29236;SDS011;16266;50.866;4.398;2023-07-13T10:07:41;18.02;;;17.30;;
29236;SDS011;16266;50.866;4.398;2023-07-13T10:10:20;19.77;;;19.10;;
29236;SDS011;16266;50.866;4.398;2023-07-13T10:12:48;18.63;;;18.00;;
29236;SDS011;16266;50.866;4.398;2023-07-13T10:15:16;20.60;;;19.83;;
29236;SDS011;16266;50.866;4.398;2023-07-13T10:17:46;24.10;;;23.30;;
29236;SDS011;16266;50.866;4.398;2023-07-13T10:20:12;25.23;;;24.23;;
29236;SDS011;16266;50.866;4.398;2023-07-13T10:25:19;23.45;;;22.65;;
29236;SDS011;16266;50.866;4.398;2023-07-13T10:27:47;25.40;;;24.17;;
29236;SDS011;16266;50.866;4.398;2023-07-13T10:30:27;24.40;;;23.52;;
29236;SDS011;16266;50.866;4.398;2023-07-13T10:32:59;25.50;;;24.52;;
29236;SDS011;16266;50.866;4.398;2023-07-13T10:35:28;23.20;;;22.38;;
29236;SDS011;16266;50.866;4.398;2023-07-13T10:37:57;20.58;;;19.88;;
29236;SDS011;16266;50.866;4.398;2023-07-13T10:40:35;32.08;;;30.95;;
29236;SDS011;16266;50.866;4.398;2023-07-13T10:43:06;28.17;;;27.25;;
29236;SDS011;16266;50.866;4.398;2023-07-13T10:45:47;24.10;;;22.95;;
29236;SDS011;16266;50.866;4.398;2023-07-13T10:48:16;18.60;;;17.92;;
29236;SDS011;16266;50.866;4.398;2023-07-13T10:50:43;59.28;;;57.00;;
29236;SDS011;16266;50.866;4.398;2023-07-13T10:53:19;72.93;;;70.20;;
29236;SDS011;16266;50.866;4.398;2023-07-13T10:59:01;373.85;;;355.35;;
29236;SDS011;16266;50.866;4.398;2023-07-13T11:01:14;78.78;;;75.78;;
29236;SDS011;16266;50.866;4.398;2023-07-13T11:11:31;22.05;;;21.25;;
29236;SDS011;16266;50.866;4.398;2023-07-13T11:14:01;17.77;;;17.05;;
29236;SDS011;16266;50.866;4.398;2023-07-13T11:16:43;17.40;;;16.25;;
29236;SDS011;16266;50.866;4.398;2023-07-13T11:30:59;21.27;;;20.58;;
29236;SDS011;16266;50.866;4.398;2023-07-13T11:35:41;16.98;;;16.40;;
29236;SDS011;16266;50.866;4.398;2023-07-13T11:38:33;16.38;;;15.80;;
29236;SDS011;16266;50.866;4.398;2023-07-13T11:41:14;25.05;;;23.80;;
29236;SDS011;16266;50.866;4.398;2023-07-13T11:43:43;16.20;;;15.60;;
29236;SDS011;16266;50.866;4.398;2023-07-13T11:46:17;21.58;;;20.80;;
29236;SDS011;16266;50.866;4.398;2023-07-13T11:48:46;42.38;;;40.88;;
29236;SDS011;16266;50.866;4.398;2023-07-13T11:51:26;51.60;;;49.70;;
29236;SDS011;16266;50.866;4.398;2023-07-13T11:53:56;343.83;;;327.45;;
29236;SDS011;16266;50.866;4.398;2023-07-13T11:56:29;268.85;;;257.38;;
29236;SDS011;16266;50.866;4.398;2023-07-13T11:58:57;328.23;;;313.23;;
29236;SDS011;16266;50.866;4.398;2023-07-13T12:01:30;174.65;;;167.95;;
29236;SDS011;16266;50.866;4.398;2023-07-13T12:04:00;39.72;;;38.30;;
29236;SDS011;16266;50.866;4.398;2023-07-13T12:06:32;41.28;;;39.83;;
29236;SDS011;16266;50.866;4.398;2023-07-13T12:09:01;38.10;;;36.72;;
29236;SDS011;16266;50.866;4.398;2023-07-13T12:11:29;35.95;;;34.55;;
29236;SDS011;16266;50.866;4.398;2023-07-13T12:13:55;60.75;;;58.50;;
29236;SDS011;16266;50.866;4.398;2023-07-13T12:18:47;66.30;;;63.88;;
29236;SDS011;16266;50.866;4.398;2023-07-13T12:21:14;46.83;;;44.83;;
29236;SDS011;16266;50.866;4.398;2023-07-13T12:23:43;42.72;;;41.22;;
29236;SDS011;16266;50.866;4.398;2023-07-13T12:26:13;52.85;;;50.95;;
29236;SDS011;16266;50.866;4.398;2023-07-13T12:28:51;47.00;;;45.28;;
29236;SDS011;16266;50.866;4.398;2023-07-13T12:34:03;547.55;;;514.72;;
29236;SDS011;16266;50.866;4.398;2023-07-13T12:36:49;688.28;;;643.60;;
29236;SDS011;16266;50.866;4.398;2023-07-13T12:39:17;729.83;;;677.75;;
29236;SDS011;16266;50.866;4.398;2023-07-13T12:41:53;662.00;;;617.33;;
29236;SDS011;16266;50.866;4.398;2023-07-13T12:44:29;659.60;;;618.30;;
29236;SDS011;16266;50.866;4.398;2023-07-13T12:46:57;543.75;;;515.35;;
29236;SDS011;16266;50.866;4.398;2023-07-13T12:49:30;697.33;;;653.90;;
29236;SDS011;16266;50.866;4.398;2023-07-13T12:52:01;720.65;;;678.60;;
29236;SDS011;16266;50.866;4.398;2023-07-13T12:54:29;445.85;;;424.95;;
29236;SDS011;16266;50.866;4.398;2023-07-13T12:56:55;725.65;;;677.53;;
29236;SDS011;16266;50.866;4.398;2023-07-13T12:59:23;719.47;;;672.33;;
29236;SDS011;16266;50.866;4.398;2023-07-13T13:01:54;698.75;;;656.53;;
29236;SDS011;16266;50.866;4.398;2023-07-13T13:04:20;738.92;;;694.58;;
29236;SDS011;16266;50.866;4.398;2023-07-13T13:06:46;773.42;;;726.40;;
29236;SDS011;16266;50.866;4.398;2023-07-13T13:09:14;784.20;;;737.53;;
29236;SDS011;16266;50.866;4.398;2023-07-13T13:11:43;806.90;;;757.00;;
29236;SDS011;16266;50.866;4.398;2023-07-13T13:14:09;779.35;;;731.83;;
29236;SDS011;16266;50.866;4.398;2023-07-13T13:19:17;816.88;;;762.50;;
29236;SDS011;16266;50.866;4.398;2023-07-13T13:21:47;828.35;;;770.15;;
29236;SDS011;16266;50.866;4.398;2023-07-13T13:24:16;887.05;;;821.22;;
29236;SDS011;16266;50.866;4.398;2023-07-13T13:26:45;759.17;;;713.88;;
29236;SDS011;16266;50.866;4.398;2023-07-13T13:29:13;792.90;;;744.33;;
29236;SDS011;16266;50.866;4.398;2023-07-13T13:31:41;906.13;;;842.17;;
29236;SDS011;16266;50.866;4.398;2023-07-13T13:34:10;813.38;;;761.40;;
29236;SDS011;16266;50.866;4.398;2023-07-13T13:36:38;485.45;;;462.33;;
29236;SDS011;16266;50.866;4.398;2023-07-13T13:39:08;407.23;;;388.35;;
29236;SDS011;16266;50.866;4.398;2023-07-13T13:41:43;378.80;;;359.90;;
29236;SDS011;16266;50.866;4.398;2023-07-13T13:44:09;429.10;;;409.95;;
29236;SDS011;16266;50.866;4.398;2023-07-13T13:46:35;562.95;;;536.08;;
29236;SDS011;16266;50.866;4.398;2023-07-13T13:49:01;481.15;;;457.60;;
29236;SDS011;16266;50.866;4.398;2023-07-13T13:51:27;339.67;;;325.45;;
29236;SDS011;16266;50.866;4.398;2023-07-13T13:53:54;534.15;;;509.15;;
29236;SDS011;16266;50.866;4.398;2023-07-13T13:56:20;442.42;;;421.55;;
29236;SDS011;16266;50.866;4.398;2023-07-13T13:58:46;379.95;;;363.33;;
29236;SDS011;16266;50.866;4.398;2023-07-13T14:01:21;293.73;;;281.58;;
29236;SDS011;16266;50.866;4.398;2023-07-13T14:03:49;250.45;;;240.60;;
29236;SDS011;16266;50.866;4.398;2023-07-13T14:06:16;111.28;;;107.00;;
29236;SDS011;16266;50.866;4.398;2023-07-13T14:08:45;112.72;;;108.28;;
29236;SDS011;16266;50.866;4.398;2023-07-13T14:11:13;90.82;;;87.45;;
29236;SDS011;16266;50.866;4.398;2023-07-13T14:13:44;81.40;;;78.40;;
29236;SDS011;16266;50.866;4.398;2023-07-13T14:16:17;38.60;;;37.15;;
29236;SDS011;16266;50.866;4.398;2023-07-13T14:18:44;60.72;;;58.25;;
29236;SDS011;16266;50.866;4.398;2023-07-13T14:21:14;138.63;;;133.43;;
29236;SDS011;16266;50.866;4.398;2023-07-13T14:23:44;35.38;;;34.15;;
29236;SDS011;16266;50.866;4.398;2023-07-13T14:26:11;38.03;;;36.70;;
29236;SDS011;16266;50.866;4.398;2023-07-13T14:28:41;116.78;;;112.40;;
29236;SDS011;16266;50.866;4.398;2023-07-13T14:31:09;84.10;;;81.00;;
29236;SDS011;16266;50.866;4.398;2023-07-13T14:33:36;64.93;;;62.42;;
29236;SDS011;16266;50.866;4.398;2023-07-13T14:36:02;76.47;;;73.68;;
29236;SDS011;16266;50.866;4.398;2023-07-13T14:38:34;59.10;;;56.70;;
29236;SDS011;16266;50.866;4.398;2023-07-13T14:41:00;125.57;;;120.82;;
29236;SDS011;16266;50.866;4.398;2023-07-13T14:43:25;41.03;;;39.58;;
29236;SDS011;16266;50.866;4.398;2023-07-13T14:45:53;69.28;;;66.70;;
29236;SDS011;16266;50.866;4.398;2023-07-13T14:48:21;55.47;;;53.47;;
29236;SDS011;16266;50.866;4.398;2023-07-13T14:50:53;56.05;;;54.05;;
29236;SDS011;16266;50.866;4.398;2023-07-13T14:53:20;42.97;;;41.45;;
29236;SDS011;16266;50.866;4.398;2023-07-13T14:55:45;47.63;;;45.88;;
29236;SDS011;16266;50.866;4.398;2023-07-13T14:58:11;39.08;;;37.67;;
29236;SDS011;16266;50.866;4.398;2023-07-13T15:00:38;44.80;;;43.17;;
29236;SDS011;16266;50.866;4.398;2023-07-13T15:03:05;41.75;;;40.20;;